Washington, California
Current Conditions -  °F | °C
As of 5:52 AM on Sunday 25 Jan 2015 (Local Time) from KBLU Reporting Station
Clear Clear  
Wind Chill: 59°   Ceiling: Unl
Heat Index: 59°   Visibility: 10mi
Dew Point: 21°   Wind: 5mph
Humidity: 23%   Direction: NA
Pressure: 30.29"   Gusts: NA
Location:  39.36°N, 120.8°W
Report Text: KBLU 251352Z AUTO VRB04KT 10SM CLR 15/M06 A3029 RMK AO2 SLP198 T01501061
Loading
Personal Weather Stations






























Interactive Weather Map New forecast layout! Learn more

10-Day Weather Forecast

Advertisements
Track Severe Weather on mobile